sensor_id;sensor_type;location;lat;lon;timestamp;temperature;humidity
49327;DHT22;35819;44.498;0.166;2022-10-16T00:01:16;16.50;99.90
49327;DHT22;35819;44.498;0.166;2022-10-16T00:03:43;16.50;99.90
49327;DHT22;35819;44.498;0.166;2022-10-16T00:06:10;16.50;99.90
49327;DHT22;35819;44.498;0.166;2022-10-16T00:08:37;16.50;99.90
49327;DHT22;35819;44.498;0.166;2022-10-16T00:11:06;16.50;99.90
49327;DHT22;35819;44.498;0.166;2022-10-16T00:13:33;16.50;99.90
49327;DHT22;35819;44.498;0.166;2022-10-16T00:16:00;16.50;99.90
49327;DHT22;35819;44.498;0.166;2022-10-16T00:18:27;16.50;99.90
49327;DHT22;35819;44.498;0.166;2022-10-16T00:20:54;16.60;99.90
49327;DHT22;35819;44.498;0.166;2022-10-16T00:23:20;16.60;99.90
49327;DHT22;35819;44.498;0.166;2022-10-16T00:25:55;16.70;99.90
49327;DHT22;35819;44.498;0.166;2022-10-16T00:28:21;16.80;99.90
49327;DHT22;35819;44.498;0.166;2022-10-16T00:30:47;16.90;99.90
49327;DHT22;35819;44.498;0.166;2022-10-16T00:33:12;17.10;99.90
49327;DHT22;35819;44.498;0.166;2022-10-16T00:35:38;17.20;99.90
49327;DHT22;35819;44.498;0.166;2022-10-16T00:38:04;17.40;99.90
49327;DHT22;35819;44.498;0.166;2022-10-16T00:40:30;17.40;99.90
49327;DHT22;35819;44.498;0.166;2022-10-16T00:42:57;17.50;99.90
49327;DHT22;35819;44.498;0.166;2022-10-16T00:45:23;17.60;99.90
49327;DHT22;35819;44.498;0.166;2022-10-16T00:47:50;17.70;99.90
49327;DHT22;35819;44.498;0.166;2022-10-16T00:50:33;17.70;99.90
49327;DHT22;35819;44.498;0.166;2022-10-16T00:53:01;17.70;99.90
49327;DHT22;35819;44.498;0.166;2022-10-16T00:55:28;17.80;99.90
49327;DHT22;35819;44.498;0.166;2022-10-16T00:57:56;17.80;99.90
49327;DHT22;35819;44.498;0.166;2022-10-16T01:00:25;17.80;99.90
49327;DHT22;35819;44.498;0.166;2022-10-16T01:02:58;17.90;99.90
49327;DHT22;35819;44.498;0.166;2022-10-16T01:05:30;17.90;99.90
49327;DHT22;35819;44.498;0.166;2022-10-16T01:08:10;17.90;99.90
49327;DHT22;35819;44.498;0.166;2022-10-16T01:10:42;17.90;99.90
49327;DHT22;35819;44.498;0.166;2022-10-16T01:13:23;17.90;99.90
49327;DHT22;35819;44.498;0.166;2022-10-16T01:16:07;17.90;99.90
49327;DHT22;35819;44.498;0.166;2022-10-16T01:18:45;18.00;99.90
49327;DHT22;35819;44.498;0.166;2022-10-16T01:21:22;17.90;99.90
49327;DHT22;35819;44.498;0.166;2022-10-16T01:24:45;17.90;99.90
49327;DHT22;35819;44.498;0.166;2022-10-16T01:30:13;17.80;99.90
49327;DHT22;35819;44.498;0.166;2022-10-16T01:32:53;17.70;99.90
49327;DHT22;35819;44.498;0.166;2022-10-16T01:35:25;17.60;99.90
49327;DHT22;35819;44.498;0.166;2022-10-16T01:38:00;17.60;99.90
49327;DHT22;35819;44.498;0.166;2022-10-16T01:40:28;17.60;99.90
49327;DHT22;35819;44.498;0.166;2022-10-16T01:43:06;17.50;99.90
49327;DHT22;35819;44.498;0.166;2022-10-16T01:45:34;17.50;99.90
49327;DHT22;35819;44.498;0.166;2022-10-16T01:48:02;17.50;99.90
49327;DHT22;35819;44.498;0.166;2022-10-16T01:50:33;17.50;99.90
49327;DHT22;35819;44.498;0.166;2022-10-16T01:53:02;17.50;99.90
49327;DHT22;35819;44.498;0.166;2022-10-16T01:55:32;17.50;99.90
49327;DHT22;35819;44.498;0.166;2022-10-16T01:58:00;17.50;99.90
49327;DHT22;35819;44.498;0.166;2022-10-16T02:00:27;17.50;99.90
49327;DHT22;35819;44.498;0.166;2022-10-16T02:02:55;17.50;99.90
49327;DHT22;35819;44.498;0.166;2022-10-16T02:08:10;17.60;99.90
49327;DHT22;35819;44.498;0.166;2022-10-16T02:10:37;17.60;99.90
49327;DHT22;35819;44.498;0.166;2022-10-16T02:13:19;17.60;99.90
49327;DHT22;35819;44.498;0.166;2022-10-16T02:15:48;17.60;99.90
49327;DHT22;35819;44.498;0.166;2022-10-16T02:18:14;17.60;99.90
49327;DHT22;35819;44.498;0.166;2022-10-16T02:20:48;17.60;99.90
49327;DHT22;35819;44.498;0.166;2022-10-16T02:23:23;17.60;99.90
49327;DHT22;35819;44.498;0.166;2022-10-16T02:25:50;17.60;99.90
49327;DHT22;35819;44.498;0.166;2022-10-16T02:28:24;17.60;99.90
49327;DHT22;35819;44.498;0.166;2022-10-16T02:33:23;17.60;99.90
49327;DHT22;35819;44.498;0.166;2022-10-16T02:35:51;17.60;99.90
49327;DHT22;35819;44.498;0.166;2022-10-16T02:38:18;17.60;99.90
49327;DHT22;35819;44.498;0.166;2022-10-16T02:40:45;17.60;99.90
49327;DHT22;35819;44.498;0.166;2022-10-16T02:43:11;17.60;99.90
49327;DHT22;35819;44.498;0.166;2022-10-16T02:45:37;17.60;99.90
49327;DHT22;35819;44.498;0.166;2022-10-16T02:48:03;17.50;99.90
49327;DHT22;35819;44.498;0.166;2022-10-16T02:50:29;17.50;99.90
49327;DHT22;35819;44.498;0.166;2022-10-16T02:52:55;17.50;99.90
49327;DHT22;35819;44.498;0.166;2022-10-16T02:55:21;17.50;99.90
49327;DHT22;35819;44.498;0.166;2022-10-16T02:57:47;17.50;99.90
49327;DHT22;35819;44.498;0.166;2022-10-16T03:00:15;17.40;99.90
49327;DHT22;35819;44.498;0.166;2022-10-16T03:02:42;17.40;99.90
49327;DHT22;35819;44.498;0.166;2022-10-16T03:05:08;17.40;99.90
49327;DHT22;35819;44.498;0.166;2022-10-16T03:07:35;17.40;99.90
49327;DHT22;35819;44.498;0.166;2022-10-16T03:10:00;17.40;99.90
49327;DHT22;35819;44.498;0.166;2022-10-16T03:12:27;17.40;99.90
49327;DHT22;35819;44.498;0.166;2022-10-16T03:14:53;17.40;99.90
49327;DHT22;35819;44.498;0.166;2022-10-16T03:17:19;17.40;99.90
49327;DHT22;35819;44.498;0.166;2022-10-16T03:19:45;17.30;99.90
49327;DHT22;35819;44.498;0.166;2022-10-16T03:22:11;17.30;99.90
49327;DHT22;35819;44.498;0.166;2022-10-16T03:24:36;17.30;99.90
49327;DHT22;35819;44.498;0.166;2022-10-16T03:27:02;17.20;99.90
49327;DHT22;35819;44.498;0.166;2022-10-16T03:29:28;17.20;99.90
49327;DHT22;35819;44.498;0.166;2022-10-16T03:31:55;17.20;99.90
49327;DHT22;35819;44.498;0.166;2022-10-16T03:34:21;17.10;99.90
49327;DHT22;35819;44.498;0.166;2022-10-16T03:36:47;17.10;99.90
49327;DHT22;35819;44.498;0.166;2022-10-16T03:39:13;17.00;99.90
49327;DHT22;35819;44.498;0.166;2022-10-16T03:41:40;17.00;99.90
49327;DHT22;35819;44.498;0.166;2022-10-16T03:44:06;17.00;99.90
49327;DHT22;35819;44.498;0.166;2022-10-16T03:46:32;16.90;99.90
49327;DHT22;35819;44.498;0.166;2022-10-16T03:48:58;16.90;99.90
49327;DHT22;35819;44.498;0.166;2022-10-16T03:51:24;16.90;99.90
49327;DHT22;35819;44.498;0.166;2022-10-16T03:53:50;16.80;99.90
49327;DHT22;35819;44.498;0.166;2022-10-16T03:56:16;16.80;99.90
49327;DHT22;35819;44.498;0.166;2022-10-16T03:58:41;16.80;99.90
49327;DHT22;35819;44.498;0.166;2022-10-16T04:01:07;16.90;99.90
49327;DHT22;35819;44.498;0.166;2022-10-16T04:03:33;16.90;99.90
49327;DHT22;35819;44.498;0.166;2022-10-16T04:05:59;16.90;99.90
49327;DHT22;35819;44.498;0.166;2022-10-16T04:08:25;16.80;99.90
49327;DHT22;35819;44.498;0.166;2022-10-16T04:10:51;16.80;99.90
49327;DHT22;35819;44.498;0.166;2022-10-16T04:13:17;16.80;99.90
49327;DHT22;35819;44.498;0.166;2022-10-16T04:15:44;16.70;99.90
49327;DHT22;35819;44.498;0.166;2022-10-16T04:18:09;16.70;99.90
49327;DHT22;35819;44.498;0.166;2022-10-16T04:20:35;16.70;99.90
49327;DHT22;35819;44.498;0.166;2022-10-16T04:23:01;16.60;99.90
49327;DHT22;35819;44.498;0.166;2022-10-16T04:25:27;16.60;99.90
49327;DHT22;35819;44.498;0.166;2022-10-16T04:27:53;16.60;99.90
49327;DHT22;35819;44.498;0.166;2022-10-16T04:30:20;16.50;99.90
49327;DHT22;35819;44.498;0.166;2022-10-16T04:32:50;16.40;99.90
49327;DHT22;35819;44.498;0.166;2022-10-16T04:35:20;16.40;99.90
49327;DHT22;35819;44.498;0.166;2022-10-16T04:37:46;16.30;99.90
49327;DHT22;35819;44.498;0.166;2022-10-16T04:40:13;16.30;99.90
49327;DHT22;35819;44.498;0.166;2022-10-16T04:42:39;16.20;99.90
49327;DHT22;35819;44.498;0.166;2022-10-16T04:45:06;16.20;99.90
49327;DHT22;35819;44.498;0.166;2022-10-16T04:47:31;16.20;99.90
49327;DHT22;35819;44.498;0.166;2022-10-16T04:49:57;16.10;99.90
49327;DHT22;35819;44.498;0.166;2022-10-16T04:52:24;16.10;99.90
49327;DHT22;35819;44.498;0.166;2022-10-16T04:54:50;16.10;99.90
49327;DHT22;35819;44.498;0.166;2022-10-16T04:57:17;16.10;99.90
49327;DHT22;35819;44.498;0.166;2022-10-16T04:59:43;16.00;99.90
49327;DHT22;35819;44.498;0.166;2022-10-16T05:02:08;16.00;99.90
49327;DHT22;35819;44.498;0.166;2022-10-16T05:04:34;16.00;99.90
49327;DHT22;35819;44.498;0.166;2022-10-16T05:07:00;16.00;99.90
49327;DHT22;35819;44.498;0.166;2022-10-16T05:09:25;15.90;99.90
49327;DHT22;35819;44.498;0.166;2022-10-16T05:11:52;15.90;99.90
49327;DHT22;35819;44.498;0.166;2022-10-16T05:14:18;15.90;99.90
49327;DHT22;35819;44.498;0.166;2022-10-16T05:16:44;15.80;99.90
49327;DHT22;35819;44.498;0.166;2022-10-16T05:19:09;15.80;99.90
49327;DHT22;35819;44.498;0.166;2022-10-16T05:21:35;15.80;99.90
49327;DHT22;35819;44.498;0.166;2022-10-16T05:24:01;15.80;99.90
49327;DHT22;35819;44.498;0.166;2022-10-16T05:26:27;15.70;99.90
49327;DHT22;35819;44.498;0.166;2022-10-16T05:28:52;15.70;99.90
49327;DHT22;35819;44.498;0.166;2022-10-16T05:31:18;15.60;99.90
49327;DHT22;35819;44.498;0.166;2022-10-16T05:33:44;15.60;99.90
49327;DHT22;35819;44.498;0.166;2022-10-16T05:36:10;15.60;99.90
49327;DHT22;35819;44.498;0.166;2022-10-16T05:38:36;15.60;99.90
49327;DHT22;35819;44.498;0.166;2022-10-16T05:41:03;15.60;99.90
49327;DHT22;35819;44.498;0.166;2022-10-16T05:43:31;15.60;99.90
49327;DHT22;35819;44.498;0.166;2022-10-16T05:45:59;15.60;99.90
49327;DHT22;35819;44.498;0.166;2022-10-16T05:48:25;15.60;99.90
49327;DHT22;35819;44.498;0.166;2022-10-16T05:51:05;15.60;99.90
49327;DHT22;35819;44.498;0.166;2022-10-16T05:53:33;15.70;99.90
49327;DHT22;35819;44.498;0.166;2022-10-16T05:56:00;15.70;99.90
49327;DHT22;35819;44.498;0.166;2022-10-16T05:58:29;15.70;99.90
49327;DHT22;35819;44.498;0.166;2022-10-16T06:00:56;15.70;99.90
49327;DHT22;35819;44.498;0.166;2022-10-16T06:03:23;15.80;99.90
49327;DHT22;35819;44.498;0.166;2022-10-16T06:05:49;15.70;99.90
49327;DHT22;35819;44.498;0.166;2022-10-16T06:08:15;15.80;99.90
49327;DHT22;35819;44.498;0.166;2022-10-16T06:10:40;15.80;99.90
49327;DHT22;35819;44.498;0.166;2022-10-16T06:13:06;15.80;99.90
49327;DHT22;35819;44.498;0.166;2022-10-16T06:15:32;15.80;99.90
49327;DHT22;35819;44.498;0.166;2022-10-16T06:17:57;15.80;99.90
49327;DHT22;35819;44.498;0.166;2022-10-16T06:20:23;15.80;99.90
49327;DHT22;35819;44.498;0.166;2022-10-16T06:22:49;15.70;99.90
49327;DHT22;35819;44.498;0.166;2022-10-16T06:25:14;15.70;99.90
49327;DHT22;35819;44.498;0.166;2022-10-16T06:27:40;15.60;99.90
49327;DHT22;35819;44.498;0.166;2022-10-16T06:30:07;15.60;99.90
49327;DHT22;35819;44.498;0.166;2022-10-16T06:32:33;15.60;99.90
49327;DHT22;35819;44.498;0.166;2022-10-16T06:34:58;15.60;99.90
49327;DHT22;35819;44.498;0.166;2022-10-16T06:37:24;15.60;99.90
49327;DHT22;35819;44.498;0.166;2022-10-16T06:39:50;15.60;99.90
49327;DHT22;35819;44.498;0.166;2022-10-16T06:42:19;15.60;99.90
49327;DHT22;35819;44.498;0.166;2022-10-16T06:44:45;15.60;99.90
49327;DHT22;35819;44.498;0.166;2022-10-16T06:47:10;15.60;99.90
49327;DHT22;35819;44.498;0.166;2022-10-16T06:49:36;15.60;99.90
49327;DHT22;35819;44.498;0.166;2022-10-16T06:52:02;15.70;99.90
49327;DHT22;35819;44.498;0.166;2022-10-16T06:54:28;15.70;99.90
49327;DHT22;35819;44.498;0.166;2022-10-16T06:56:53;15.80;99.90
49327;DHT22;35819;44.498;0.166;2022-10-16T06:59:20;15.80;99.90
49327;DHT22;35819;44.498;0.166;2022-10-16T07:01:47;15.90;99.90
49327;DHT22;35819;44.498;0.166;2022-10-16T07:04:13;16.00;99.90
49327;DHT22;35819;44.498;0.166;2022-10-16T07:06:39;16.10;99.90
49327;DHT22;35819;44.498;0.166;2022-10-16T07:09:07;16.20;99.90
49327;DHT22;35819;44.498;0.166;2022-10-16T07:11:34;16.30;99.90
49327;DHT22;35819;44.498;0.166;2022-10-16T07:14:02;16.40;99.90
49327;DHT22;35819;44.498;0.166;2022-10-16T07:16:30;16.50;99.90
49327;DHT22;35819;44.498;0.166;2022-10-16T07:18:58;16.50;99.90
49327;DHT22;35819;44.498;0.166;2022-10-16T07:21:26;16.50;99.90
49327;DHT22;35819;44.498;0.166;2022-10-16T07:23:55;16.50;99.90
49327;DHT22;35819;44.498;0.166;2022-10-16T07:26:23;16.50;99.90
49327;DHT22;35819;44.498;0.166;2022-10-16T07:28:49;16.50;99.90
49327;DHT22;35819;44.498;0.166;2022-10-16T07:31:16;16.60;99.90
49327;DHT22;35819;44.498;0.166;2022-10-16T07:33:44;16.60;99.90
49327;DHT22;35819;44.498;0.166;2022-10-16T07:36:11;16.60;99.90
49327;DHT22;35819;44.498;0.166;2022-10-16T07:38:37;16.70;99.90
49327;DHT22;35819;44.498;0.166;2022-10-16T07:41:05;16.80;99.90
49327;DHT22;35819;44.498;0.166;2022-10-16T07:43:32;16.80;99.90
49327;DHT22;35819;44.498;0.166;2022-10-16T07:45:59;16.90;99.90
49327;DHT22;35819;44.498;0.166;2022-10-16T07:48:28;17.00;99.90
49327;DHT22;35819;44.498;0.166;2022-10-16T07:50:59;17.00;99.90
49327;DHT22;35819;44.498;0.166;2022-10-16T07:53:27;17.10;99.90
49327;DHT22;35819;44.498;0.166;2022-10-16T07:55:59;17.20;99.90
49327;DHT22;35819;44.498;0.166;2022-10-16T07:58:26;17.30;99.90
49327;DHT22;35819;44.498;0.166;2022-10-16T08:00:52;17.40;99.90
49327;DHT22;35819;44.498;0.166;2022-10-16T08:03:17;17.60;99.90
49327;DHT22;35819;44.498;0.166;2022-10-16T08:05:43;17.70;99.90
49327;DHT22;35819;44.498;0.166;2022-10-16T08:08:13;17.80;99.90
49327;DHT22;35819;44.498;0.166;2022-10-16T08:10:39;17.90;99.90
49327;DHT22;35819;44.498;0.166;2022-10-16T08:13:04;18.10;99.90
49327;DHT22;35819;44.498;0.166;2022-10-16T08:15:30;18.20;99.90
49327;DHT22;35819;44.498;0.166;2022-10-16T08:18:04;18.30;99.90
49327;DHT22;35819;44.498;0.166;2022-10-16T08:20:33;18.40;99.90
49327;DHT22;35819;44.498;0.166;2022-10-16T08:22:59;18.60;99.90
49327;DHT22;35819;44.498;0.166;2022-10-16T08:25:26;18.80;99.90
49327;DHT22;35819;44.498;0.166;2022-10-16T08:27:52;18.90;99.90
49327;DHT22;35819;44.498;0.166;2022-10-16T08:30:19;19.10;99.90
49327;DHT22;35819;44.498;0.166;2022-10-16T08:32:46;19.30;99.90
49327;DHT22;35819;44.498;0.166;2022-10-16T08:35:12;19.60;99.90
49327;DHT22;35819;44.498;0.166;2022-10-16T08:37:38;19.90;99.90
49327;DHT22;35819;44.498;0.166;2022-10-16T08:40:06;20.80;99.90
49327;DHT22;35819;44.498;0.166;2022-10-16T08:48:20;23.60;99.90
49327;DHT22;35819;44.498;0.166;2022-10-16T08:50:49;24.40;99.90
49327;DHT22;35819;44.498;0.166;2022-10-16T08:53:27;25.00;99.90
49327;DHT22;35819;44.498;0.166;2022-10-16T08:55:54;25.40;99.20
49327;DHT22;35819;44.498;0.166;2022-10-16T08:58:22;25.70;98.40
49327;DHT22;35819;44.498;0.166;2022-10-16T09:00:53;25.90;97.80
49327;DHT22;35819;44.498;0.166;2022-10-16T09:12:18;27.50;94.40
49327;DHT22;35819;44.498;0.166;2022-10-16T09:17:51;28.20;92.40
49327;DHT22;35819;44.498;0.166;2022-10-16T09:22:50;28.90;91.50
49327;DHT22;35819;44.498;0.166;2022-10-16T09:25:21;29.10;90.30
49327;DHT22;35819;44.498;0.166;2022-10-16T09:27:48;29.30;89.70
49327;DHT22;35819;44.498;0.166;2022-10-16T09:30:19;29.50;88.60
49327;DHT22;35819;44.498;0.166;2022-10-16T09:32:47;29.70;87.20
49327;DHT22;35819;44.498;0.166;2022-10-16T09:35:20;28.80;87.60
49327;DHT22;35819;44.498;0.166;2022-10-16T09:37:49;27.80;90.10
49327;DHT22;35819;44.498;0.166;2022-10-16T09:40:27;27.30;91.00
49327;DHT22;35819;44.498;0.166;2022-10-16T09:43:02;28.10;90.20
49327;DHT22;35819;44.498;0.166;2022-10-16T09:45:28;28.40;89.20
49327;DHT22;35819;44.498;0.166;2022-10-16T09:47:57;27.90;89.90
49327;DHT22;35819;44.498;0.166;2022-10-16T09:50:26;27.10;90.70
49327;DHT22;35819;44.498;0.166;2022-10-16T09:53:08;26.50;91.40
49327;DHT22;35819;44.498;0.166;2022-10-16T09:55:35;26.20;91.90
49327;DHT22;35819;44.498;0.166;2022-10-16T09:58:01;27.00;91.80
49327;DHT22;35819;44.498;0.166;2022-10-16T10:00:29;28.30;90.00
49327;DHT22;35819;44.498;0.166;2022-10-16T10:02:55;29.20;87.90
49327;DHT22;35819;44.498;0.166;2022-10-16T10:05:26;29.90;85.40
49327;DHT22;35819;44.498;0.166;2022-10-16T10:10:27;30.70;81.90
49327;DHT22;35819;44.498;0.166;2022-10-16T10:12:54;30.90;80.60
49327;DHT22;35819;44.498;0.166;2022-10-16T10:15:21;31.30;80.00
49327;DHT22;35819;44.498;0.166;2022-10-16T10:17:55;31.90;78.40
49327;DHT22;35819;44.498;0.166;2022-10-16T10:20:29;32.10;76.40
49327;DHT22;35819;44.498;0.166;2022-10-16T10:22:57;32.20;75.50
49327;DHT22;35819;44.498;0.166;2022-10-16T10:26:00;32.40;74.80
49327;DHT22;35819;44.498;0.166;2022-10-16T10:31:29;32.60;72.60
49327;DHT22;35819;44.498;0.166;2022-10-16T10:36:37;33.40;70.80
49327;DHT22;35819;44.498;0.166;2022-10-16T10:39:21;33.30;70.50
49327;DHT22;35819;44.498;0.166;2022-10-16T10:42:20;33.70;69.10
49327;DHT22;35819;44.498;0.166;2022-10-16T10:47:27;35.10;65.70
49327;DHT22;35819;44.498;0.166;2022-10-16T11:01:16;35.90;61.70
49327;DHT22;35819;44.498;0.166;2022-10-16T11:04:07;35.90;61.50
49327;DHT22;35819;44.498;0.166;2022-10-16T11:06:50;36.10;60.30
49327;DHT22;35819;44.498;0.166;2022-10-16T11:09:40;35.40;61.00
49327;DHT22;35819;44.498;0.166;2022-10-16T11:15:14;36.00;61.10
49327;DHT22;35819;44.498;0.166;2022-10-16T11:17:48;36.70;59.60
49327;DHT22;35819;44.498;0.166;2022-10-16T11:20:24;37.50;58.90
49327;DHT22;35819;44.498;0.166;2022-10-16T11:22:56;37.90;57.60
49327;DHT22;35819;44.498;0.166;2022-10-16T11:25:31;37.80;56.90
49327;DHT22;35819;44.498;0.166;2022-10-16T11:33:51;37.30;56.90
49327;DHT22;35819;44.498;0.166;2022-10-16T11:36:35;36.70;57.70
49327;DHT22;35819;44.498;0.166;2022-10-16T11:41:51;36.80;57.40
49327;DHT22;35819;44.498;0.166;2022-10-16T11:49:47;37.90;56.30
49327;DHT22;35819;44.498;0.166;2022-10-16T11:52:37;38.10;55.50
49327;DHT22;35819;44.498;0.166;2022-10-16T11:55:15;38.10;55.40
49327;DHT22;35819;44.498;0.166;2022-10-16T11:57:49;38.40;54.60
49327;DHT22;35819;44.498;0.166;2022-10-16T12:00:28;38.30;54.30
49327;DHT22;35819;44.498;0.166;2022-10-16T12:08:29;38.90;53.40
49327;DHT22;35819;44.498;0.166;2022-10-16T12:11:19;39.30;53.20
49327;DHT22;35819;44.498;0.166;2022-10-16T12:13:45;39.90;52.60
49327;DHT22;35819;44.498;0.166;2022-10-16T12:18:44;40.70;50.90
49327;DHT22;35819;44.498;0.166;2022-10-16T12:21:11;40.20;50.40
49327;DHT22;35819;44.498;0.166;2022-10-16T12:24:02;40.10;51.00
49327;DHT22;35819;44.498;0.166;2022-10-16T12:26:37;40.00;51.30
49327;DHT22;35819;44.498;0.166;2022-10-16T12:29:14;40.20;51.30
49327;DHT22;35819;44.498;0.166;2022-10-16T12:31:48;40.10;50.80
49327;DHT22;35819;44.498;0.166;2022-10-16T12:34:41;39.60;51.00
49327;DHT22;35819;44.498;0.166;2022-10-16T12:37:13;39.00;51.80
49327;DHT22;35819;44.498;0.166;2022-10-16T12:39:39;38.70;52.10
49327;DHT22;35819;44.498;0.166;2022-10-16T12:44:54;38.70;51.90
49327;DHT22;35819;44.498;0.166;2022-10-16T12:47:37;38.70;51.90
49327;DHT22;35819;44.498;0.166;2022-10-16T12:50:25;38.50;52.20
49327;DHT22;35819;44.498;0.166;2022-10-16T12:52:51;38.50;52.30
49327;DHT22;35819;44.498;0.166;2022-10-16T12:55:18;38.10;52.90
49327;DHT22;35819;44.498;0.166;2022-10-16T12:58:09;38.10;53.20
49327;DHT22;35819;44.498;0.166;2022-10-16T13:00:59;38.50;52.60
49327;DHT22;35819;44.498;0.166;2022-10-16T13:06:39;39.20;51.90
49327;DHT22;35819;44.498;0.166;2022-10-16T13:09:27;39.80;50.90
49327;DHT22;35819;44.498;0.166;2022-10-16T13:30:21;43.00;45.60
49327;DHT22;35819;44.498;0.166;2022-10-16T13:32:50;42.00;46.20
49327;DHT22;35819;44.498;0.166;2022-10-16T13:35:26;41.20;46.50
49327;DHT22;35819;44.498;0.166;2022-10-16T13:38:13;40.90;46.70
49327;DHT22;35819;44.498;0.166;2022-10-16T13:43:17;40.20;46.90
49327;DHT22;35819;44.498;0.166;2022-10-16T13:46:01;39.70;47.80
49327;DHT22;35819;44.498;0.166;2022-10-16T13:48:31;39.30;48.60
49327;DHT22;35819;44.498;0.166;2022-10-16T13:51:12;39.30;48.90
49327;DHT22;35819;44.498;0.166;2022-10-16T13:53:52;39.10;49.00
49327;DHT22;35819;44.498;0.166;2022-10-16T13:56:20;38.70;49.50
49327;DHT22;35819;44.498;0.166;2022-10-16T13:58:57;38.30;49.50
49327;DHT22;35819;44.498;0.166;2022-10-16T14:01:26;38.30;49.30
49327;DHT22;35819;44.498;0.166;2022-10-16T14:04:07;38.80;49.00
49327;DHT22;35819;44.498;0.166;2022-10-16T14:06:35;39.60;48.80
49327;DHT22;35819;44.498;0.166;2022-10-16T14:09:12;40.90;47.60
49327;DHT22;35819;44.498;0.166;2022-10-16T14:11:50;41.50;46.80
49327;DHT22;35819;44.498;0.166;2022-10-16T14:14:17;41.50;46.10
49327;DHT22;35819;44.498;0.166;2022-10-16T14:16:43;41.10;45.90
49327;DHT22;35819;44.498;0.166;2022-10-16T14:19:20;40.60;46.30
49327;DHT22;35819;44.498;0.166;2022-10-16T14:21:48;40.40;46.90
49327;DHT22;35819;44.498;0.166;2022-10-16T14:24:25;40.30;46.60
49327;DHT22;35819;44.498;0.166;2022-10-16T14:26:51;40.00;46.60
49327;DHT22;35819;44.498;0.166;2022-10-16T14:29:20;39.90;47.00
49327;DHT22;35819;44.498;0.166;2022-10-16T14:32:03;39.50;47.30
49327;DHT22;35819;44.498;0.166;2022-10-16T14:34:34;39.00;47.80
49327;DHT22;35819;44.498;0.166;2022-10-16T14:37:26;38.40;48.60
49327;DHT22;35819;44.498;0.166;2022-10-16T14:39:53;38.50;48.80
49327;DHT22;35819;44.498;0.166;2022-10-16T14:42:22;38.40;48.70
49327;DHT22;35819;44.498;0.166;2022-10-16T14:44:52;37.50;49.00
49327;DHT22;35819;44.498;0.166;2022-10-16T14:47:21;36.80;50.10
49327;DHT22;35819;44.498;0.166;2022-10-16T14:49:50;36.10;51.00
49327;DHT22;35819;44.498;0.166;2022-10-16T14:52:17;35.30;52.20
49327;DHT22;35819;44.498;0.166;2022-10-16T14:54:43;34.60;53.30
49327;DHT22;35819;44.498;0.166;2022-10-16T14:57:22;34.10;54.10
49327;DHT22;35819;44.498;0.166;2022-10-16T14:59:48;33.90;54.50
49327;DHT22;35819;44.498;0.166;2022-10-16T15:04:51;33.30;55.80
49327;DHT22;35819;44.498;0.166;2022-10-16T15:07:17;32.90;56.50
49327;DHT22;35819;44.498;0.166;2022-10-16T15:09:42;32.50;57.10
49327;DHT22;35819;44.498;0.166;2022-10-16T15:12:08;32.50;57.30
49327;DHT22;35819;44.498;0.166;2022-10-16T15:14:34;32.60;56.70
49327;DHT22;35819;44.498;0.166;2022-10-16T15:17:00;32.50;57.00
49327;DHT22;35819;44.498;0.166;2022-10-16T15:19:25;32.90;56.60
49327;DHT22;35819;44.498;0.166;2022-10-16T15:21:51;32.90;56.30
49327;DHT22;35819;44.498;0.166;2022-10-16T15:24:18;32.60;56.90
49327;DHT22;35819;44.498;0.166;2022-10-16T15:26:44;32.00;57.50
49327;DHT22;35819;44.498;0.166;2022-10-16T15:29:11;31.40;58.40
49327;DHT22;35819;44.498;0.166;2022-10-16T15:31:37;31.40;58.80
49327;DHT22;35819;44.498;0.166;2022-10-16T15:34:05;31.60;58.30
49327;DHT22;35819;44.498;0.166;2022-10-16T15:36:36;31.70;58.10
49327;DHT22;35819;44.498;0.166;2022-10-16T15:39:05;31.60;57.90
49327;DHT22;35819;44.498;0.166;2022-10-16T15:41:31;31.80;58.20
49327;DHT22;35819;44.498;0.166;2022-10-16T15:43:56;32.20;57.60
49327;DHT22;35819;44.498;0.166;2022-10-16T15:46:23;32.80;56.30
49327;DHT22;35819;44.498;0.166;2022-10-16T15:48:51;32.90;56.20
49327;DHT22;35819;44.498;0.166;2022-10-16T15:51:21;32.50;56.80
49327;DHT22;35819;44.498;0.166;2022-10-16T15:53:46;31.90;57.30
49327;DHT22;35819;44.498;0.166;2022-10-16T15:56:13;31.30;58.10
49327;DHT22;35819;44.498;0.166;2022-10-16T15:58:39;30.80;58.80
49327;DHT22;35819;44.498;0.166;2022-10-16T16:01:05;30.40;59.40
49327;DHT22;35819;44.498;0.166;2022-10-16T16:03:32;30.00;60.20
49327;DHT22;35819;44.498;0.166;2022-10-16T16:06:05;29.60;60.80
49327;DHT22;35819;44.498;0.166;2022-10-16T16:08:33;29.20;61.40
49327;DHT22;35819;44.498;0.166;2022-10-16T16:11:09;28.90;62.40
49327;DHT22;35819;44.498;0.166;2022-10-16T16:13:35;28.60;62.90
49327;DHT22;35819;44.498;0.166;2022-10-16T16:16:10;28.40;63.60
49327;DHT22;35819;44.498;0.166;2022-10-16T16:18:37;28.10;64.40
49327;DHT22;35819;44.498;0.166;2022-10-16T16:21:04;27.90;64.80
49327;DHT22;35819;44.498;0.166;2022-10-16T16:23:30;27.80;65.20
49327;DHT22;35819;44.498;0.166;2022-10-16T16:26:22;27.60;65.60
49327;DHT22;35819;44.498;0.166;2022-10-16T16:28:53;27.40;66.40
49327;DHT22;35819;44.498;0.166;2022-10-16T16:31:19;27.30;67.00
49327;DHT22;35819;44.498;0.166;2022-10-16T16:33:46;27.10;67.20
49327;DHT22;35819;44.498;0.166;2022-10-16T16:36:12;26.90;67.70
49327;DHT22;35819;44.498;0.166;2022-10-16T16:38:38;26.80;68.20
49327;DHT22;35819;44.498;0.166;2022-10-16T16:41:20;26.70;68.80
49327;DHT22;35819;44.498;0.166;2022-10-16T16:43:46;26.60;69.20
49327;DHT22;35819;44.498;0.166;2022-10-16T16:46:14;26.50;69.80
49327;DHT22;35819;44.498;0.166;2022-10-16T16:48:40;26.40;70.40
49327;DHT22;35819;44.498;0.166;2022-10-16T16:51:07;26.30;70.80
49327;DHT22;35819;44.498;0.166;2022-10-16T16:53:35;26.20;71.30
49327;DHT22;35819;44.498;0.166;2022-10-16T16:56:02;26.00;71.70
49327;DHT22;35819;44.498;0.166;2022-10-16T16:58:28;25.90;72.20
49327;DHT22;35819;44.498;0.166;2022-10-16T17:00:54;25.80;72.60
49327;DHT22;35819;44.498;0.166;2022-10-16T17:03:19;25.60;73.20
49327;DHT22;35819;44.498;0.166;2022-10-16T17:05:58;25.50;73.70
49327;DHT22;35819;44.498;0.166;2022-10-16T17:08:25;25.40;74.00
49327;DHT22;35819;44.498;0.166;2022-10-16T17:10:51;25.20;74.10
49327;DHT22;35819;44.498;0.166;2022-10-16T17:13:23;25.20;74.40
49327;DHT22;35819;44.498;0.166;2022-10-16T17:15:50;25.10;74.60
49327;DHT22;35819;44.498;0.166;2022-10-16T17:18:18;25.00;74.70
49327;DHT22;35819;44.498;0.166;2022-10-16T17:20:44;25.00;74.80
49327;DHT22;35819;44.498;0.166;2022-10-16T17:23:10;24.90;75.00
49327;DHT22;35819;44.498;0.166;2022-10-16T17:25:38;24.80;75.20
49327;DHT22;35819;44.498;0.166;2022-10-16T17:28:04;24.70;75.50
49327;DHT22;35819;44.498;0.166;2022-10-16T17:30:31;24.60;75.90